createdAt,value
2019-02-19T00:02:21.158Z,1.75
2019-02-19T00:04:50.179Z,1.64
2019-02-19T00:07:22.095Z,1.60
2019-02-19T00:09:52.531Z,1.62
2019-02-19T00:12:21.679Z,1.67
2019-02-19T00:14:51.415Z,1.64
2019-02-19T00:17:24.246Z,1.61
2019-02-19T00:19:54.526Z,1.67
2019-02-19T00:22:24.189Z,1.66
2019-02-19T00:24:53.251Z,1.66
2019-02-19T00:27:22.391Z,1.58
2019-02-19T00:29:52.224Z,1.57
2019-02-19T00:32:23.469Z,1.59
2019-02-19T00:34:54.037Z,1.62
2019-02-19T00:37:23.164Z,1.63
2019-02-19T00:39:54.576Z,1.59
2019-02-19T00:42:25.935Z,1.56
2019-02-19T00:44:59.058Z,1.56
2019-02-19T00:47:30.414Z,1.56
2019-02-19T00:50:01.666Z,1.56
2019-02-19T00:52:33.329Z,1.54
2019-02-19T00:55:04.655Z,1.43
2019-02-19T00:57:35.439Z,1.37
2019-02-19T01:00:05.348Z,1.35
2019-02-19T01:02:35.024Z,1.34
2019-02-19T01:05:06.723Z,1.33
2019-02-19T01:07:37.126Z,1.34
2019-02-19T01:10:08.365Z,1.35
2019-02-19T01:12:38.208Z,1.27
2019-02-19T01:15:09.939Z,1.21
2019-02-19T01:17:40.388Z,1.21
2019-02-19T01:20:11.344Z,1.20
2019-02-19T01:22:41.758Z,1.15
2019-02-19T01:25:12.526Z,1.18
2019-02-19T01:27:42.179Z,1.19
2019-02-19T01:30:13.313Z,1.22
2019-02-19T01:32:44.710Z,1.23
2019-02-19T01:35:14.395Z,1.12
2019-02-19T01:37:44.752Z,1.09
2019-02-19T01:40:15.501Z,1.13
2019-02-19T01:42:45.395Z,1.13
2019-02-19T01:45:14.523Z,1.07
2019-02-19T01:47:43.634Z,1.04
2019-02-19T01:50:16.927Z,0.97
2019-02-19T01:52:48.409Z,0.87
2019-02-19T01:55:18.926Z,1.02
2019-02-19T01:57:50.357Z,1.02
2019-02-19T02:00:20.622Z,1.05
2019-02-19T02:02:51.909Z,1.10
2019-02-19T02:05:21.825Z,1.07
2019-02-19T02:07:53.151Z,1.11
2019-02-19T02:10:22.242Z,1.11
2019-02-19T02:12:50.496Z,1.08
2019-02-19T02:15:19.798Z,1.04
2019-02-19T02:17:48.853Z,1.12
2019-02-19T02:20:20.209Z,1.15
2019-02-19T02:22:51.503Z,1.15
2019-02-19T02:25:23.984Z,1.06
2019-02-19T02:27:53.995Z,1.06
2019-02-19T02:30:24.428Z,1.09
2019-02-19T02:32:53.498Z,1.24
2019-02-19T02:35:23.383Z,1.16
2019-02-19T02:37:53.023Z,1.21
2019-02-19T02:40:22.658Z,1.23
2019-02-19T02:42:52.338Z,1.19
2019-02-19T02:45:21.893Z,1.12
2019-02-19T02:47:53.215Z,1.06
2019-02-19T02:50:26.357Z,1.01
2019-02-19T02:52:56.435Z,1.09
2019-02-19T02:55:25.537Z,1.02
2019-02-19T02:57:56.950Z,0.99
2019-02-19T03:00:28.224Z,1.02
2019-02-19T03:03:01.377Z,0.98
2019-02-19T03:05:32.550Z,1.02
2019-02-19T03:08:05.459Z,1.13
2019-02-19T03:10:35.109Z,1.14
2019-02-19T03:13:06.463Z,1.22
2019-02-19T03:15:37.111Z,1.26
2019-02-19T03:18:06.176Z,1.18
2019-02-19T03:20:36.205Z,1.15
2019-02-19T03:23:06.120Z,1.22
2019-02-19T03:25:36.160Z,1.20
2019-02-19T03:28:07.469Z,1.13
2019-02-19T03:30:38.789Z,1.06
2019-02-19T03:33:10.201Z,1.06
2019-02-19T03:35:40.621Z,1.06
2019-02-19T03:38:11.703Z,1.10
2019-02-19T03:40:42.481Z,1.23
2019-02-19T03:43:12.915Z,1.30
2019-02-19T03:45:44.085Z,1.33
2019-02-19T03:48:14.831Z,1.16
2019-02-19T03:50:44.584Z,1.01
2019-02-19T03:53:14.111Z,1.04
2019-02-19T03:55:43.162Z,1.06
2019-02-19T03:58:12.271Z,1.08
2019-02-19T04:00:43.521Z,0.96
2019-02-19T04:03:13.158Z,0.79
2019-02-19T04:05:44.845Z,0.71
2019-02-19T04:08:16.223Z,0.75
2019-02-19T04:10:46.100Z,0.73
2019-02-19T04:13:14.678Z,0.76
2019-02-19T04:15:45.424Z,0.70
2019-02-19T04:18:15.129Z,0.77
2019-02-19T04:20:45.903Z,0.71
2019-02-19T04:23:15.923Z,0.61
2019-02-19T04:25:45.614Z,0.56
2019-02-19T04:28:16.213Z,0.48
2019-02-19T04:30:47.536Z,0.43
2019-02-19T04:33:20.210Z,0.40
2019-02-19T04:35:50.958Z,0.46
2019-02-19T04:38:22.293Z,0.42
2019-02-19T04:40:52.135Z,0.28
2019-02-19T04:43:21.194Z,0.33
2019-02-19T04:45:50.300Z,0.29
2019-02-19T04:48:20.353Z,0.16
2019-02-19T04:50:50.894Z,0.20
2019-02-19T04:53:24.142Z,0.19
2019-02-19T04:55:54.927Z,0.31
2019-02-19T04:58:24.022Z,0.26
2019-02-19T05:00:54.549Z,0.17
2019-02-19T05:03:23.132Z,0.26
2019-02-19T05:05:53.805Z,0.27
2019-02-19T05:08:23.631Z,0.34
2019-02-19T05:10:56.319Z,0.43
2019-02-19T05:13:26.181Z,0.35
2019-02-19T05:15:55.922Z,0.26
2019-02-19T05:18:27.347Z,0.37
2019-02-19T05:20:57.972Z,0.33
2019-02-19T05:23:29.327Z,0.32
2019-02-19T05:25:59.886Z,0.40
2019-02-19T05:28:31.251Z,0.39
2019-02-19T05:31:03.149Z,0.29
2019-02-19T05:33:35.981Z,0.28
2019-02-19T05:36:09.110Z,0.36
2019-02-19T05:38:39.045Z,0.36
2019-02-19T05:41:09.647Z,0.33
2019-02-19T05:43:39.973Z,0.31
2019-02-19T05:46:09.965Z,0.30
2019-02-19T05:48:41.235Z,0.20
2019-02-19T05:51:13.851Z,0.23
2019-02-19T05:53:44.911Z,0.07
2019-02-19T05:56:16.208Z,-0.06
2019-02-19T05:58:46.539Z,-0.03
2019-02-19T06:01:19.190Z,-0.26
2019-02-19T06:03:51.429Z,-0.26
2019-02-19T06:06:22.223Z,-0.21
2019-02-19T06:08:55.028Z,-0.28
2019-02-19T06:11:24.867Z,-0.22
2019-02-19T06:13:55.467Z,-0.14
2019-02-19T06:16:26.229Z,-0.15
2019-02-19T06:18:56.036Z,-0.19
2019-02-19T06:21:25.654Z,-0.24
2019-02-19T06:23:55.457Z,-0.20
2019-02-19T06:26:26.271Z,-0.09
2019-02-19T06:28:57.913Z,-0.07
2019-02-19T06:31:31.282Z,-0.05
2019-02-19T06:34:01.087Z,0.11
2019-02-19T06:36:33.331Z,0.19
2019-02-19T06:39:03.174Z,0.49
2019-02-19T06:41:33.027Z,0.52
2019-02-19T06:44:02.833Z,0.41
2019-02-19T06:46:34.162Z,0.40
2019-02-19T06:49:06.191Z,0.57
2019-02-19T06:51:36.081Z,1.01
2019-02-19T06:54:07.408Z,1.14
2019-02-19T06:56:38.022Z,1.30
2019-02-19T06:59:07.072Z,1.91
2019-02-19T07:01:46.057Z,2.51
2019-02-19T07:04:17.454Z,2.79
2019-02-19T07:06:48.544Z,2.95
2019-02-19T07:09:18.370Z,3.44
2019-02-19T07:11:49.433Z,3.60
2019-02-19T07:14:19.982Z,3.55
2019-02-19T07:16:53.233Z,3.59
2019-02-19T07:19:23.794Z,3.97
2019-02-19T07:21:53.878Z,4.07
2019-02-19T07:24:22.955Z,4.53
2019-02-19T07:26:51.232Z,4.45
2019-02-19T07:29:21.877Z,4.51
2019-02-19T07:31:53.230Z,4.34
2019-02-19T07:34:23.043Z,5.17
2019-02-19T07:36:51.325Z,4.22
2019-02-19T07:39:20.147Z,4.63
2019-02-19T07:41:49.779Z,5.09
2019-02-19T07:44:18.051Z,4.64
2019-02-19T07:46:46.789Z,5.07
2019-02-19T07:49:15.842Z,5.78
2019-02-19T07:51:47.215Z,6.31
2019-02-19T07:54:17.775Z,6.30
2019-02-19T07:56:49.149Z,5.64
2019-02-19T07:59:19.183Z,6.52
2019-02-19T08:01:49.993Z,7.01
2019-02-19T08:04:22.802Z,6.65
2019-02-19T08:06:54.162Z,6.67
2019-02-19T08:09:24.738Z,5.92
2019-02-19T08:11:56.180Z,5.07
2019-02-19T08:14:25.791Z,4.59
2019-02-19T08:16:57.240Z,4.47
2019-02-19T08:19:27.951Z,3.74
2019-02-19T08:21:58.348Z,4.01
2019-02-19T08:24:29.355Z,4.12
2019-02-19T08:26:58.652Z,4.89
2019-02-19T08:29:26.911Z,5.66
2019-02-19T08:31:56.579Z,6.40
2019-02-19T08:34:25.642Z,7.24
2019-02-19T08:36:56.943Z,7.54
2019-02-19T08:39:27.382Z,6.99
2019-02-19T08:41:57.199Z,5.82
2019-02-19T08:44:27.045Z,5.96
2019-02-19T08:46:57.347Z,6.25
2019-02-19T08:49:28.033Z,6.24
2019-02-19T08:51:57.747Z,6.25
2019-02-19T08:54:30.862Z,6.22
2019-02-19T08:57:02.178Z,6.80
2019-02-19T08:59:31.836Z,7.62
2019-02-19T09:02:00.939Z,8.46
2019-02-19T09:04:30.034Z,7.52
2019-02-19T09:06:59.194Z,7.66
2019-02-19T09:09:27.694Z,7.65
2019-02-19T09:11:57.677Z,7.83
2019-02-19T09:14:29.043Z,7.37
2019-02-19T09:16:58.553Z,7.20
2019-02-19T09:19:27.703Z,6.79
2019-02-19T09:21:56.791Z,7.30
2019-02-19T09:24:28.216Z,7.72
2019-02-19T09:26:58.962Z,7.89
2019-02-19T09:29:28.802Z,7.72
2019-02-19T09:31:58.819Z,7.31
2019-02-19T09:34:27.875Z,7.30
2019-02-19T09:36:57.542Z,7.93
2019-02-19T09:39:28.880Z,7.57
2019-02-19T09:41:58.495Z,7.21
2019-02-19T09:44:27.588Z,7.23
2019-02-19T09:46:58.702Z,7.84
2019-02-19T09:49:29.982Z,7.58
2019-02-19T09:51:59.621Z,7.30
2019-02-19T09:54:31.059Z,7.19
2019-02-19T09:57:02.419Z,7.13
2019-02-19T09:59:33.071Z,7.17
2019-02-19T10:02:06.801Z,7.24
2019-02-19T10:04:36.662Z,7.99
2019-02-19T10:07:08.051Z,7.68
2019-02-19T10:09:38.943Z,7.90
2019-02-19T10:12:08.530Z,7.80
2019-02-19T10:14:38.847Z,7.95
2019-02-19T10:17:09.424Z,8.02
2019-02-19T10:19:40.847Z,7.73
2019-02-19T10:22:12.082Z,7.97
2019-02-19T10:24:42.880Z,7.99
2019-02-19T10:27:13.679Z,7.85
2019-02-19T10:29:45.582Z,8.28
2019-02-19T10:32:16.954Z,8.65
2019-02-19T10:34:47.764Z,8.82
2019-02-19T10:37:19.086Z,9.19
2019-02-19T10:39:49.935Z,9.23
2019-02-19T10:42:19.801Z,9.10
2019-02-19T10:44:49.662Z,9.50
2019-02-19T10:47:22.834Z,9.34
2019-02-19T10:49:56.751Z,9.05
2019-02-19T10:52:29.527Z,9.00
2019-02-19T10:54:59.948Z,9.56
2019-02-19T10:57:37.774Z,9.44
2019-02-19T11:00:16.159Z,9.62
2019-02-19T11:02:47.795Z,9.69
2019-02-19T11:05:17.649Z,9.83
2019-02-19T11:07:49.620Z,10.04
2019-02-19T11:10:20.280Z,9.56
2019-02-19T11:12:52.264Z,9.50
2019-02-19T11:15:22.132Z,9.67
2019-02-19T11:17:52.525Z,9.81
2019-02-19T11:20:24.307Z,9.90
2019-02-19T11:22:59.337Z,10.05
2019-02-19T11:25:28.960Z,10.05
2019-02-19T11:27:58.641Z,9.99
2019-02-19T11:30:30.996Z,10.16
2019-02-19T11:33:01.650Z,10.57
2019-02-19T11:35:34.995Z,10.94
2019-02-19T11:38:05.551Z,11.04
2019-02-19T11:40:37.775Z,11.52
2019-02-19T11:43:08.063Z,11.70
2019-02-19T11:45:37.568Z,12.31
2019-02-19T11:48:13.417Z,11.79
2019-02-19T11:50:46.575Z,11.47
2019-02-19T11:53:19.015Z,11.19
2019-02-19T11:55:51.413Z,11.32
2019-02-19T11:58:22.756Z,11.07
2019-02-19T12:00:52.450Z,11.03
2019-02-19T12:03:22.809Z,10.93
2019-02-19T12:05:54.896Z,10.84
2019-02-19T12:08:25.466Z,10.96
2019-02-19T12:10:56.885Z,11.10
2019-02-19T12:13:27.460Z,11.01
2019-02-19T12:15:56.547Z,11.31
2019-02-19T12:18:26.548Z,11.24
2019-02-19T12:20:56.969Z,11.28
2019-02-19T12:23:28.900Z,11.13
2019-02-19T12:25:58.998Z,11.50
2019-02-19T12:28:29.552Z,11.76
2019-02-19T12:31:00.020Z,11.91
2019-02-19T12:33:30.533Z,11.86
2019-02-19T12:35:59.859Z,11.90
2019-02-19T12:38:29.891Z,11.85
2019-02-19T12:41:00.632Z,12.00
2019-02-19T12:43:33.692Z,12.20
2019-02-19T12:46:04.555Z,12.30
2019-02-19T12:48:33.827Z,12.51
2019-02-19T12:51:08.880Z,12.60
2019-02-19T12:53:38.509Z,12.72
2019-02-19T12:56:08.390Z,12.61
2019-02-19T12:58:39.779Z,12.78
2019-02-19T13:01:10.608Z,12.90
2019-02-19T13:03:41.047Z,12.93
2019-02-19T13:06:11.780Z,12.88
2019-02-19T13:08:42.367Z,12.83
2019-02-19T13:11:12.255Z,12.73
2019-02-19T13:13:41.288Z,12.63
2019-02-19T13:16:12.751Z,12.39
2019-02-19T13:18:42.559Z,12.30
2019-02-19T13:21:13.364Z,12.21
2019-02-19T13:23:46.576Z,12.06
2019-02-19T13:26:17.936Z,11.94
2019-02-19T13:28:48.756Z,12.00
2019-02-19T13:31:22.135Z,12.10
2019-02-19T13:33:53.491Z,12.10
2019-02-19T13:36:26.767Z,12.10
2019-02-19T13:38:57.396Z,12.28
2019-02-19T13:41:29.388Z,12.36
2019-02-19T13:44:00.788Z,12.48
2019-02-19T13:46:30.626Z,12.49
2019-02-19T13:49:11.858Z,12.28
2019-02-19T13:51:37.139Z,12.08
2019-02-19T13:54:11.790Z,11.96
2019-02-19T13:56:43.152Z,11.88
2019-02-19T13:59:16.373Z,12.04
2019-02-19T14:01:45.477Z,11.97
2019-02-19T14:04:14.574Z,11.97
2019-02-19T14:06:46.222Z,11.96
2019-02-19T14:09:17.572Z,12.08
2019-02-19T14:11:50.005Z,12.23
2019-02-19T14:14:24.777Z,12.23
2019-02-19T14:17:01.139Z,12.23
2019-02-19T14:19:40.055Z,12.37
2019-02-19T14:22:29.133Z,12.37
2019-02-19T14:25:04.944Z,12.36
2019-02-19T14:27:40.837Z,12.38
2019-02-19T14:30:17.110Z,12.32
2019-02-19T14:32:47.263Z,12.38
2019-02-19T14:35:24.688Z,12.36
2019-02-19T14:40:58.133Z,12.32
2019-02-19T14:43:45.834Z,12.19
2019-02-19T14:46:33.229Z,12.26
2019-02-19T14:51:57.828Z,12.19
2019-02-19T14:54:32.739Z,12.28
2019-02-19T14:57:09.303Z,12.18
2019-02-19T14:59:59.396Z,12.16
2019-02-19T15:02:48.978Z,12.05
2019-02-19T15:05:26.734Z,11.98
2019-02-19T15:07:58.964Z,11.89
2019-02-19T15:10:40.652Z,11.85
2019-02-19T15:13:12.878Z,11.91
2019-02-19T15:15:48.821Z,11.94
2019-02-19T15:18:23.664Z,11.96
2019-02-19T15:21:10.010Z,11.95
2019-02-19T15:23:58.129Z,11.88
2019-02-19T15:26:35.683Z,11.79
2019-02-19T15:29:12.655Z,11.83
2019-02-19T15:31:48.595Z,11.70
2019-02-19T15:34:20.104Z,11.68
2019-02-19T15:37:05.708Z,11.65
2019-02-19T15:39:47.209Z,11.64
2019-02-19T15:42:30.792Z,11.66
2019-02-19T15:45:09.482Z,11.62
2019-02-19T15:47:50.446Z,11.62
2019-02-19T15:50:23.541Z,11.58
2019-02-19T15:53:03.374Z,11.55
2019-02-19T15:55:45.103Z,11.47
2019-02-19T15:58:19.994Z,11.40
2019-02-19T16:01:09.070Z,11.37
2019-02-19T16:03:44.044Z,10.99
2019-02-19T16:06:16.932Z,10.93
2019-02-19T16:08:54.864Z,10.64
2019-02-19T16:11:28.255Z,10.63
2019-02-19T16:14:06.595Z,10.51
2019-02-19T16:16:41.773Z,10.41
2019-02-19T16:19:13.918Z,10.36
2019-02-19T16:21:52.609Z,10.24
2019-02-19T16:24:30.772Z,10.06
2019-02-19T16:27:08.451Z,10.05
2019-02-19T16:29:42.007Z,10.05
2019-02-19T16:32:29.894Z,10.04
2019-02-19T16:35:02.351Z,10.10
2019-02-19T16:37:37.287Z,10.03
2019-02-19T16:40:11.040Z,10.10
2019-02-19T16:42:48.668Z,10.16
2019-02-19T16:45:20.216Z,10.24
2019-02-19T16:48:08.494Z,10.30
2019-02-19T16:50:41.088Z,10.26
2019-02-19T16:53:15.775Z,10.25
2019-02-19T16:55:47.289Z,10.24
2019-02-19T16:58:30.838Z,10.21
2019-02-19T17:01:02.609Z,10.25
2019-02-19T17:03:43.694Z,10.18
2019-02-19T17:06:16.143Z,10.15
2019-02-19T17:09:03.513Z,10.09
2019-02-19T17:11:41.365Z,10.04
2019-02-19T17:14:12.031Z,9.99
2019-02-19T17:16:48.985Z,9.96
2019-02-19T17:19:33.720Z,9.94
2019-02-19T17:22:06.951Z,9.96
2019-02-19T17:24:50.485Z,9.88
2019-02-19T17:27:40.682Z,9.90
2019-02-19T17:30:28.625Z,9.86
2019-02-19T17:33:09.499Z,9.83
2019-02-19T17:35:44.414Z,9.83
2019-02-19T17:38:31.740Z,9.80
2019-02-19T17:41:10.538Z,9.79
2019-02-19T17:43:45.122Z,9.79
2019-02-19T17:46:24.879Z,9.75
2019-02-19T17:49:00.682Z,9.69
2019-02-19T17:51:49.645Z,9.69
2019-02-19T17:54:24.393Z,9.59
2019-02-19T17:57:11.562Z,9.59
2019-02-19T17:59:45.812Z,9.57
2019-02-19T18:02:32.206Z,9.54
2019-02-19T18:05:07.759Z,9.43
2019-02-19T18:07:42.509Z,9.38
2019-02-19T18:10:16.590Z,9.33
2019-02-19T18:12:57.906Z,9.34
2019-02-19T18:15:29.904Z,9.35
2019-02-19T18:18:09.839Z,9.29
2019-02-19T18:20:47.463Z,9.31
2019-02-19T18:23:17.230Z,9.29
2019-02-19T18:25:47.791Z,9.18
2019-02-19T18:28:19.183Z,9.18
2019-02-19T18:30:49.748Z,9.18
2019-02-19T18:33:19.397Z,9.18
2019-02-19T18:35:50.159Z,9.11
2019-02-19T18:38:20.005Z,9.12
2019-02-19T18:40:50.766Z,9.11
2019-02-19T18:43:21.109Z,9.00
2019-02-19T18:45:51.495Z,8.96
2019-02-19T18:48:20.476Z,8.97
2019-02-19T18:50:58.147Z,8.91
2019-02-19T18:53:22.821Z,8.87
2019-02-19T18:55:56.118Z,8.90
2019-02-19T18:58:25.955Z,8.95
2019-02-19T19:00:55.006Z,8.94
2019-02-19T19:03:27.036Z,8.85
2019-02-19T19:05:56.871Z,8.78
2019-02-19T19:08:28.142Z,8.77
2019-02-19T19:10:58.898Z,8.65
2019-02-19T19:13:32.145Z,8.60
2019-02-19T19:16:01.166Z,8.58
2019-02-19T19:18:30.872Z,8.59
2019-02-19T19:21:07.956Z,8.60
2019-02-19T19:23:34.250Z,8.48
2019-02-19T19:26:03.946Z,8.45
2019-02-19T19:28:35.604Z,8.36
2019-02-19T19:31:05.616Z,8.33
2019-02-19T19:33:36.031Z,8.32
2019-02-19T19:36:06.038Z,8.29
2019-02-19T19:38:38.257Z,8.23
2019-02-19T19:41:08.081Z,8.12
2019-02-19T19:43:37.711Z,8.04
2019-02-19T19:46:07.487Z,8.00
2019-02-19T19:48:37.404Z,7.95
2019-02-19T19:51:16.909Z,7.89
2019-02-19T19:53:39.888Z,7.80
2019-02-19T19:56:10.368Z,7.78
2019-02-19T19:58:41.629Z,7.69
2019-02-19T20:01:13.211Z,7.70
2019-02-19T20:03:44.146Z,7.70
2019-02-19T20:06:14.499Z,7.63
2019-02-19T20:08:44.835Z,7.58
2019-02-19T20:11:15.433Z,7.54
2019-02-19T20:13:44.741Z,7.50
2019-02-19T20:16:13.807Z,7.43
2019-02-19T20:18:47.056Z,7.40
2019-02-19T20:21:16.671Z,7.32
2019-02-19T20:23:49.920Z,7.27
2019-02-19T20:26:23.259Z,7.26
2019-02-19T20:28:56.023Z,7.20
2019-02-19T20:31:28.337Z,7.14
2019-02-19T20:33:59.860Z,7.05
2019-02-19T20:36:32.818Z,7.11
2019-02-19T20:39:09.600Z,7.07
2019-02-19T20:41:40.785Z,6.76
2019-02-19T20:44:12.499Z,6.76
2019-02-19T20:46:43.728Z,6.74
2019-02-19T20:49:14.004Z,6.65
2019-02-19T20:51:46.148Z,6.54
2019-02-19T20:54:17.558Z,6.35
2019-02-19T20:56:48.863Z,6.30
2019-02-19T20:59:18.468Z,6.26
2019-02-19T21:01:48.815Z,6.24
2019-02-19T21:04:17.351Z,6.12
2019-02-19T21:06:46.068Z,6.10
2019-02-19T21:09:15.909Z,6.03
2019-02-19T21:11:45.958Z,5.97
2019-02-19T21:14:15.776Z,6.05
2019-02-19T21:16:44.343Z,6.08
2019-02-19T21:19:12.888Z,6.18
2019-02-19T21:21:44.974Z,6.10
2019-02-19T21:24:13.166Z,6.05
2019-02-19T21:26:42.721Z,5.92
2019-02-19T21:29:12.641Z,5.93
2019-02-19T21:31:44.084Z,5.81
2019-02-19T21:34:14.661Z,5.79
2019-02-19T21:36:47.635Z,5.67
2019-02-19T21:39:16.721Z,5.61
2019-02-19T21:41:48.656Z,5.47
2019-02-19T21:44:19.392Z,5.35
2019-02-19T21:46:52.621Z,5.31
2019-02-19T21:49:23.790Z,5.29
2019-02-19T21:51:54.521Z,5.28
2019-02-19T21:54:25.939Z,5.21
2019-02-19T21:56:55.621Z,5.18
2019-02-19T21:59:26.931Z,5.15
2019-02-19T22:01:58.320Z,5.14
2019-02-19T22:04:32.032Z,5.07
2019-02-19T22:09:39.142Z,5.04
2019-02-19T22:12:09.743Z,5.11
2019-02-19T22:14:42.962Z,4.99
2019-02-19T22:19:46.679Z,4.87
2019-02-19T22:22:17.457Z,4.84
2019-02-19T22:24:48.782Z,4.79
2019-02-19T22:27:18.714Z,4.72
2019-02-19T22:29:51.926Z,4.71
2019-02-19T22:32:25.216Z,4.58
2019-02-19T22:34:55.038Z,4.52
2019-02-19T22:37:25.861Z,4.46
2019-02-19T22:39:56.535Z,4.45
2019-02-19T22:42:27.697Z,4.43
2019-02-19T22:44:59.109Z,4.37
2019-02-19T22:47:29.951Z,4.32
2019-02-19T22:50:03.097Z,4.33
2019-02-19T22:52:33.514Z,4.25
2019-02-19T22:55:06.511Z,4.27
2019-02-19T22:57:37.299Z,4.17
2019-02-19T23:00:10.449Z,4.13
2019-02-19T23:02:39.525Z,4.09
2019-02-19T23:05:09.876Z,4.11
2019-02-19T23:07:40.660Z,4.03
2019-02-19T23:10:10.723Z,4.01
2019-02-19T23:12:40.395Z,4.03
2019-02-19T23:15:08.902Z,4.07
2019-02-19T23:17:39.236Z,4.06
2019-02-19T23:20:09.965Z,4.02
2019-02-19T23:22:40.578Z,3.93
2019-02-19T23:25:11.030Z,3.94
2019-02-19T23:27:41.636Z,3.88
2019-02-19T23:30:11.416Z,3.89
2019-02-19T23:32:42.768Z,3.87
2019-02-19T23:35:14.019Z,3.79
2019-02-19T23:37:45.651Z,3.77
2019-02-19T23:40:17.001Z,3.73
2019-02-19T23:42:48.992Z,3.63
2019-02-19T23:45:21.266Z,3.65
2019-02-19T23:47:50.388Z,3.47
2019-02-19T23:50:21.636Z,3.47
2019-02-19T23:52:53.299Z,3.43
2019-02-19T23:55:23.689Z,3.41
2019-02-19T23:57:54.968Z,3.33
